Campbell AAF (Fort Campbell) Air Field
KHOP : now visible

Airfield :











YOU CAN JOIN US ON...

 
LOGIN :

Register | Disclaimer

   EN    FR    IT 

 









Legend :    VFR   Marginal VFR   IFR   Intensive IFR   Very Intensive IFR
Visi :
Ceiling :
>= 8 km
>= 3000ft
5 to 8 km
1000 to 3000 ft
1500m to 5 km
500 to 1000 ft
800 to 1500m
200 to 500 ft
< 800m
< 200 ft
Symbols :   Thunderstorms  Fog  Heavy snow  Heavy precipitations  Wind > 20 kt







- Airport Elevation : 573 ft


KHOP - Campbell AAF (Fort Campbell) Air Field

CURRENT METAR :
  • 191211Z AUTO 34010G17KT 10SM BKN007 OVC014 09/09 A2957 RMK AO2 DZE11 SLP014

EXPIRED METARs :
  • 191156Z AUTO 34013G18KT 9SM -DZ BKN006 OVC014 09/09 A2956 RMK AO2 RAE17DZB17E32RAB32E42DZB42 SLP011 P0002 60009 70111 T00860086 10114 20086 53004
  • 191114Z AUTO 33012KT 7SM -RA BKN007 OVC016 09/09 A2955 RMK AO2 CIG 005V009 SLP008
  • 191107Z AUTO 33008KT 8SM -RA SCT005 BKN009 OVC016 09/09 A2955 RMK AO2 CIG 006V016 SLP008
  • 191103Z AUTO 33010KT 9SM -RA BKN006 OVC016 09/09 A2955 RMK AO2 CIG 006V016 BKN V SCT SLP008
  • 191056Z AUTO 33010KT 10SM -RA SCT006 OVC016 09/09 A2955 RMK AO2 RAE09DZB09E14RAB14E28DZB28E45RAB45 SLP008 P0002 T00870087
  • 191009Z AUTO 34010KT 10SM -RA BKN006 OVC012 09/09 A2954 RMK AO2 SLP004
  • 190956Z AUTO 34009G18KT 8SM -RA OVC007 09/09 A2954 RMK AO2 DZE04DZB40E41RAB41 SLP004 P0001 T00880088
  • 190927Z AUTO 35010KT 10SM OVC008 09/09 A2954 RMK AO2 DZE04 SLP004
  • 190923Z AUTO 35009KT 10SM OVC008 09/09 A2954 RMK AO2 DZE04 SLP003

TAF AMD TAF KHOP
Valid from the 19 at 11:00 until the 20 at 14:00 UTC


191121Z 1911/2014 34010G15KT 9000 -RA BKN007 OVC016 QNH2948INS
BECMG 2005/2006 34010G15KT 9000 -RA OVC010 QNH2948INS
BECMG 2011/2012 34010G15KT 9999 NSW OVC020 QNH2956INS TX10/1920Z TN05/2008Z
KZME FIR / North America



MET'MAP, your aeronautical weather chart ! - Copyright ORBIFLY December 2007 - Disclaimer

ORBIFLY MET'MAP TEAM :

Programming & Development : Alexandra Zaïnal
Concept & Development : Baudouin d'Aumeries
Co-Development & Prog : Marc-Olivier Méhu
Technical & hardware support : Manuel Goepfert

Contact : metmap@orbifly.com




SOURCES & CREDITS :

   NOAA       Earth
Advisory